createdAt,value
2022-10-03T09:32:53.001Z,193.27
2022-10-03T09:35:26.274Z,210.05
2022-10-03T09:37:58.885Z,162.05
2022-10-03T09:40:53.335Z,134.82
2022-10-03T09:43:57.344Z,262.65
2022-10-03T09:46:46.315Z,138.60
2022-10-03T09:49:51.923Z,93.22
2022-10-03T09:52:56.942Z,255.13
2022-10-03T09:55:36.484Z,165.95
2022-10-03T09:58:41.038Z,153.40
2022-10-03T10:01:17.272Z,156.07
2022-10-03T10:04:43.352Z,221.60
2022-10-03T10:07:37.611Z,225.82
2022-10-03T10:10:31.487Z,104.35
2022-10-03T10:13:16.401Z,123.00
2022-10-03T10:15:57.396Z,235.05
2022-10-03T10:18:50.969Z,156.63
2022-10-03T10:21:43.060Z,63.10
2022-10-03T10:24:47.536Z,345.63
2022-10-03T10:27:16.822Z,327.35
2022-10-03T10:30:04.942Z,389.63
2022-10-03T10:33:23.637Z,230.90
2022-10-03T10:36:12.161Z,135.55
2022-10-03T10:39:03.628Z,95.20
2022-10-03T10:41:55.275Z,116.90
2022-10-03T10:44:43.466Z,89.63
2022-10-03T10:47:23.517Z,103.55
2022-10-03T10:50:02.574Z,121.22
2022-10-03T10:52:48.235Z,103.03
2022-10-03T10:55:30.206Z,108.80
2022-10-03T10:58:34.405Z,111.45
2022-10-03T11:01:13.016Z,161.20
2022-10-03T11:04:16.228Z,149.95
2022-10-03T11:06:57.173Z,86.07
2022-10-03T11:10:17.474Z,205.43
2022-10-03T11:13:38.612Z,236.98
2022-10-03T11:16:43.452Z,319.35
2022-10-03T11:19:25.196Z,121.15
2022-10-03T11:22:29.392Z,198.48
2022-10-03T11:49:57.354Z,172.75
2022-10-03T11:52:53.409Z,128.50
2022-10-03T11:55:43.367Z,148.00
2022-10-03T11:58:24.627Z,143.32
2022-10-03T12:01:14.121Z,127.10
2022-10-03T12:04:13.374Z,255.95
2022-10-03T12:07:10.606Z,127.05
2022-10-03T12:09:59.172Z,157.27
2022-10-03T12:12:34.560Z,260.02
2022-10-03T12:15:13.613Z,148.32
2022-10-03T12:17:48.944Z,347.75
2022-10-03T12:20:28.071Z,445.38
2022-10-03T12:23:06.951Z,347.25
2022-10-03T12:25:42.598Z,102.72
2022-10-03T12:28:44.534Z,120.78
2022-10-03T12:31:36.190Z,131.55
2022-10-03T12:34:24.305Z,135.05
2022-10-03T12:37:24.661Z,393.35
2022-10-03T12:40:00.899Z,485.50
2022-10-03T12:42:42.109Z,457.00
2022-10-03T12:45:35.265Z,373.85
2022-10-03T12:48:36.088Z,109.40
2022-10-03T12:51:17.717Z,216.52
2022-10-03T12:54:04.160Z,162.27
2022-10-03T12:56:43.296Z,107.30
2022-10-03T12:59:16.030Z,205.45
2022-10-03T13:02:00.681Z,224.43
2022-10-03T13:05:07.337Z,270.20
2022-10-03T13:08:26.632Z,259.50
2022-10-03T13:11:04.092Z,339.20
2022-10-03T13:14:07.098Z,378.15
2022-10-03T13:16:41.970Z,280.80
2022-10-03T13:19:19.133Z,319.80
2022-10-03T13:22:07.150Z,116.70
2022-10-03T13:24:55.180Z,291.05
2022-10-03T13:27:36.910Z,354.52
2022-10-03T13:30:07.036Z,238.18
2022-10-03T13:32:43.698Z,358.90
2022-10-03T13:35:41.226Z,252.05
2022-10-03T13:38:35.224Z,398.73
2022-10-03T13:41:24.630Z,328.40
2022-10-03T13:44:05.424Z,286.90
2022-10-03T13:47:08.152Z,330.05
2022-10-03T13:50:02.675Z,276.13
2022-10-03T13:52:41.932Z,233.98
2022-10-03T13:55:26.621Z,300.15
2022-10-03T14:01:07.605Z,113.30
2022-10-03T14:03:56.397Z,170.43
2022-10-03T14:06:48.240Z,247.07
2022-10-03T14:09:47.007Z,390.67
2022-10-03T14:12:54.795Z,366.52
2022-10-03T14:15:42.061Z,365.45
2022-10-03T14:18:20.514Z,418.23
2022-10-03T14:21:17.641Z,94.72
2022-10-03T14:24:04.995Z,181.75
2022-10-03T14:26:49.909Z,258.10
2022-10-03T14:29:28.504Z,164.98
2022-10-03T14:32:02.396Z,253.90
2022-10-03T14:35:17.553Z,292.17
2022-10-03T14:37:56.978Z,359.25
2022-10-03T14:40:30.342Z,103.88
2022-10-03T14:43:05.716Z,190.23
2022-10-03T14:45:44.602Z,204.25
2022-10-03T14:48:45.937Z,168.27
2022-10-03T14:51:22.658Z,202.00
2022-10-03T14:54:21.098Z,158.32
2022-10-03T14:56:49.781Z,263.13
2022-10-03T14:59:35.652Z,428.83
2022-10-03T15:02:30.332Z,366.15
2022-10-03T15:05:35.421Z,382.85
2022-10-03T15:08:17.684Z,253.95
2022-10-03T15:10:46.172Z,169.43
2022-10-03T15:13:17.395Z,194.32
2022-10-03T15:15:47.275Z,149.75
2022-10-03T15:18:17.805Z,112.18
2022-10-03T15:20:47.117Z,107.65
2022-10-03T15:23:30.748Z,134.95
2022-10-03T15:25:58.649Z,155.93
2022-10-03T15:28:54.181Z,202.25
2022-10-03T15:31:43.538Z,270.80
2022-10-03T15:34:27.509Z,364.20
2022-10-03T15:37:07.158Z,404.73
2022-10-03T15:39:43.109Z,430.85
2022-10-03T15:42:09.659Z,449.15
2022-10-03T15:44:53.775Z,437.67
2022-10-03T15:47:24.611Z,432.80
2022-10-03T15:49:57.026Z,449.48
2022-10-03T15:52:33.270Z,441.85
2022-10-03T15:55:11.735Z,450.98
2022-10-03T15:57:44.571Z,429.15
2022-10-03T16:00:22.938Z,427.45
2022-10-03T16:02:56.119Z,391.63
2022-10-03T16:05:26.513Z,327.50
2022-10-03T16:07:58.800Z,308.67
2022-10-03T16:10:57.242Z,373.73
2022-10-03T16:13:29.606Z,262.67
2022-10-03T16:16:12.976Z,334.15
2022-10-03T16:18:47.039Z,302.92
2022-10-03T16:21:23.141Z,313.80
2022-10-03T16:23:56.011Z,243.50
2022-10-03T16:26:51.582Z,285.15
2022-10-03T16:29:32.618Z,214.80
2022-10-03T16:32:02.481Z,202.02
2022-10-03T16:34:31.231Z,146.93
2022-10-03T16:37:00.098Z,175.43
2022-10-03T16:39:37.093Z,130.13
2022-10-03T16:42:20.534Z,109.68
2022-10-03T16:44:55.594Z,112.43
2022-10-03T16:47:39.259Z,74.00
2022-10-03T16:50:26.984Z,76.90
2022-10-03T16:52:58.687Z,62.10
2022-10-03T16:55:29.023Z,80.57
2022-10-03T16:57:59.950Z,62.33
2022-10-03T17:00:34.662Z,33.13
2022-10-03T17:03:04.504Z,95.68
2022-10-03T17:05:41.099Z,100.53
2022-10-03T17:08:36.711Z,159.00
2022-10-03T17:11:05.812Z,168.15
2022-10-03T17:13:43.077Z,323.77
2022-10-03T17:16:34.359Z,233.35
2022-10-03T17:19:32.975Z,277.00
2022-10-03T17:22:24.332Z,146.23
2022-10-03T17:25:03.475Z,101.15
2022-10-03T17:27:37.311Z,251.48
2022-10-03T17:30:19.451Z,305.10
2022-10-03T17:32:54.004Z,217.88
2022-10-03T17:35:48.722Z,207.35
2022-10-03T17:39:02.490Z,258.08
2022-10-03T17:41:49.884Z,219.05
2022-10-03T17:44:29.762Z,183.05
2022-10-03T17:47:10.156Z,204.77
2022-10-03T17:49:51.719Z,100.93
2022-10-03T17:52:23.708Z,148.95
2022-10-03T17:55:05.182Z,78.38
2022-10-03T17:57:31.741Z,63.83
2022-10-03T18:00:18.377Z,59.03
2022-10-03T18:03:21.611Z,37.88
2022-10-03T18:05:52.913Z,26.63
2022-10-03T18:08:26.761Z,22.50
2022-10-03T18:10:56.072Z,23.58
2022-10-03T18:13:47.251Z,38.22
2022-10-03T18:16:34.624Z,41.40
2022-10-03T18:19:21.800Z,23.85
2022-10-03T18:21:59.046Z,16.08
2022-10-03T18:24:43.578Z,23.02
2022-10-03T18:30:06.882Z,12.20
2022-10-03T18:32:38.477Z,18.20
2022-10-03T18:35:24.980Z,20.27
2022-10-03T18:38:03.445Z,24.70
2022-10-03T18:40:36.243Z,34.25
2022-10-03T18:43:06.162Z,46.70
2022-10-03T18:46:03.755Z,26.42
2022-10-03T18:49:03.106Z,30.17
2022-10-03T18:51:53.262Z,15.15
2022-10-03T18:54:38.026Z,13.07
2022-10-03T18:57:04.595Z,18.20
2022-10-03T18:59:56.303Z,15.10
2022-10-03T19:02:48.039Z,10.23
2022-10-03T19:05:22.964Z,11.98
2022-10-03T19:08:08.092Z,12.40
2022-10-03T19:10:48.295Z,12.13
2022-10-03T19:13:26.568Z,12.02
2022-10-03T19:16:13.524Z,11.73
2022-10-03T19:18:43.161Z,14.38
2022-10-03T19:21:18.996Z,16.10
2022-10-03T19:24:12.334Z,16.80
2022-10-03T19:26:46.294Z,13.63
2022-10-03T19:29:42.281Z,12.70
2022-10-03T19:32:23.578Z,11.95
2022-10-03T19:34:52.018Z,14.63
2022-10-03T19:37:45.956Z,12.50
2022-10-03T19:40:22.625Z,11.43
2022-10-03T19:42:55.434Z,11.73
2022-10-03T19:45:23.468Z,12.25
2022-10-03T19:47:59.198Z,11.57
2022-10-03T19:50:35.371Z,11.63
2022-10-03T19:53:12.275Z,11.63
2022-10-03T19:55:41.024Z,182.40
2022-10-03T19:58:07.512Z,278.05
2022-10-03T20:00:39.394Z,273.25
2022-10-03T20:03:12.522Z,250.70
2022-10-03T20:06:09.308Z,242.48
2022-10-03T20:08:52.987Z,211.13
2022-10-03T20:11:50.459Z,276.00
2022-10-03T20:14:26.618Z,238.10
2022-10-03T20:17:01.949Z,215.65
2022-10-03T20:19:42.368Z,248.18
2022-10-03T20:22:14.727Z,225.32
2022-10-03T20:24:45.434Z,261.90
2022-10-03T20:27:23.899Z,245.35
2022-10-03T20:30:00.743Z,263.40
2022-10-03T20:32:28.664Z,245.13
2022-10-03T20:34:58.857Z,223.48
2022-10-03T20:37:28.325Z,256.58
2022-10-03T20:40:03.564Z,266.63
2022-10-03T20:42:31.329Z,245.43
2022-10-03T20:45:14.326Z,248.70
2022-10-03T20:48:02.624Z,223.73
2022-10-03T20:50:52.884Z,210.85
2022-10-03T20:53:23.317Z,175.07
2022-10-03T20:55:56.656Z,201.57
2022-10-03T20:58:32.238Z,164.50
2022-10-03T21:01:09.092Z,161.80
2022-10-03T21:04:01.966Z,151.43
2022-10-03T21:06:34.513Z,135.48
2022-10-03T21:09:05.300Z,132.07
2022-10-03T21:11:37.820Z,121.57
2022-10-03T21:14:16.659Z,181.23
2022-10-03T21:16:47.771Z,195.75
2022-10-03T21:19:30.050Z,188.25
2022-10-03T21:22:01.372Z,184.13
2022-10-03T21:24:54.934Z,206.65
2022-10-03T21:27:22.772Z,172.40
2022-10-03T21:30:17.831Z,172.48
2022-10-03T21:33:13.664Z,75.43
2022-10-03T21:35:41.839Z,139.80
2022-10-03T21:38:29.524Z,142.07
2022-10-03T21:41:20.508Z,162.43
2022-10-03T21:44:05.723Z,154.00
2022-10-03T21:46:41.430Z,142.30
2022-10-03T21:49:47.673Z,160.80
2022-10-03T21:52:24.702Z,121.93
2022-10-03T21:55:26.583Z,93.82
2022-10-03T21:58:12.408Z,101.63
2022-10-03T22:01:23.183Z,109.25
2022-10-03T22:03:52.592Z,92.10
2022-10-03T22:06:25.796Z,110.78
2022-10-03T22:08:53.765Z,74.13
2022-10-03T22:11:35.641Z,124.45
2022-10-03T22:14:20.895Z,108.68
2022-10-03T22:17:15.405Z,83.63
2022-10-03T22:19:54.953Z,71.60
2022-10-03T22:22:35.499Z,99.45
2022-10-03T22:26:00.658Z,109.88
2022-10-03T22:28:39.470Z,72.18
2022-10-03T22:31:09.269Z,28.85
2022-10-03T22:33:52.212Z,59.17
2022-10-03T22:36:19.648Z,112.60
2022-10-03T22:38:48.005Z,145.50
2022-10-03T22:41:19.783Z,146.18
2022-10-03T22:43:47.890Z,137.80
2022-10-03T22:46:22.443Z,122.53
2022-10-03T22:48:57.391Z,122.90
2022-10-03T22:51:25.142Z,89.15
2022-10-03T22:53:57.674Z,151.95
2022-10-03T22:56:40.166Z,183.77
2022-10-03T22:59:11.835Z,146.05
2022-10-03T23:01:45.637Z,186.77
2022-10-03T23:04:32.690Z,146.48
2022-10-03T23:07:36.781Z,161.05
2022-10-03T23:10:12.065Z,144.82
2022-10-03T23:12:51.727Z,181.27
2022-10-03T23:15:22.605Z,170.98
2022-10-03T23:18:11.045Z,107.97
2022-10-03T23:20:56.446Z,166.63
2022-10-03T23:23:34.971Z,186.63
2022-10-03T23:26:31.832Z,176.95
2022-10-03T23:29:12.878Z,194.70
2022-10-03T23:31:59.155Z,96.90
2022-10-03T23:34:35.171Z,183.02
2022-10-03T23:37:13.654Z,186.25
2022-10-03T23:39:44.328Z,184.57
2022-10-03T23:42:33.144Z,220.20
2022-10-03T23:45:06.975Z,214.75
2022-10-03T23:47:39.954Z,217.52
2022-10-03T23:50:09.136Z,176.43
2022-10-03T23:52:45.940Z,191.30
2022-10-03T23:55:21.168Z,249.23
2022-10-03T23:57:48.209Z,217.57
